Time;durP1;ratioP1;P1;durP2;ratioP2;P2;SDS_P1;SDS_P2;PMS_P1;PMS_P2;Temp;Humidity;BMP_temperature;BMP_pressure;BME280_temperature;BME280_humidity;BME280_pressure;Samples;Min_cycle;Max_cycle;Signal;HPM_P1;HPM_P2
2021/11/13 00:00:55;;;;;;;;;;;;;;;;;;5047138;28;1717;-53
2021/11/13 00:03:21;;;;;;;;;;;;;;;;;;5047717;28;1453;-53
2021/11/13 00:05:46;;;;;;;;;;;;;;;;;;5045482;28;1440;-52
2021/11/13 00:08:11;;;;;;;;;;;;;;;;;;5047226;28;1538;-53
2021/11/13 00:10:37;;;;;;;;;;;;;;;;;;5047030;28;1526;-53
2021/11/13 00:13:02;;;;;;;;;;;;;;;;;;5045280;28;1503;-53
2021/11/13 00:15:27;;;;;;;;;;;;;;;;;;5048300;28;1949;-53
2021/11/13 00:17:53;;;;;;;;;;;;;;;;;;5047785;28;1140;-53
2021/11/13 00:20:18;;;;;;;;;;;;;;;;;;5043460;28;1573;-53
2021/11/13 00:22:44;;;;;;;;;;;;;;;;;;5048045;28;1373;-54
2021/11/13 00:25:09;;;;;;;;;;;;;;;;;;5045243;28;1612;-52
2021/11/13 00:27:35;;;;;;;;;;;;;;;;;;5049081;28;1089;-53
2021/11/13 00:30:00;;;;;;;;;;;;;;;;;;5048104;28;1184;-53
2021/11/13 00:32:25;;;;;;;;;;;;;;;;;;5044733;28;1689;-52
2021/11/13 00:34:50;;;;;;;;;;;;;;;;;;5045394;28;1431;-53
2021/11/13 00:37:16;;;;;;;;;;;;;;;;;;5047600;28;1948;-53
2021/11/13 00:39:41;;;;;;;;;;;;;;;;;;5046914;28;1232;-53
2021/11/13 00:42:06;;;;;;;;;;;;;;;;;;5046567;28;1839;-52
2021/11/13 00:44:33;;;;;;;;;;;;;;;;;;4979392;28;1629;-53
2021/11/13 00:46:59;;;;;;;;;;;;;;;;;;5046581;28;922;-52
2021/11/13 00:49:24;;;;;;;;;;;;;;;;;;5043042;28;1668;-53
2021/11/13 00:51:49;;;;;;;;;;;;;;;;;;5044539;28;1502;-53
2021/11/13 00:54:14;;;;;;;;;;;;;;;;;;5047741;28;1160;-52
2021/11/13 00:56:39;;;;;;;;;;;;;;;;;;5044769;28;1964;-53
2021/11/13 00:59:05;;;;;;;;;;;;;;;;;;5044637;28;1677;-53
2021/11/13 01:01:30;;;;;;;;;;;;;;;;;;5047403;28;1121;-52
2021/11/13 01:03:55;;;;;;;;;;;;;;;;;;5044151;28;1708;-53
2021/11/13 01:06:20;;;;;;;;;;;;;;;;;;5047671;28;1149;-53
2021/11/13 01:08:48;;;;;;;;;;;;;;;;;;5043445;28;1664;-53
2021/11/13 01:11:13;;;;;;;;;;;;;;;;;;5048130;28;1098;-53
2021/11/13 01:13:39;;;;;;;;;;;;;;;;;;5047089;28;1618;-53
2021/11/13 01:16:04;;;;;;;;;;;;;;;;;;5044968;28;1902;-53
2021/11/13 01:18:29;;;;;;;;;;;;;;;;;;5044475;28;1518;-53
2021/11/13 01:20:54;;;;;;;;;;;;;;;;;;5043923;28;1416;-53
2021/11/13 01:23:19;;;;;;;;;;;;;;;;;;5046577;28;1459;-53
2021/11/13 01:25:46;;;;;;;;;;;;;;;;;;5045141;28;1440;-54
2021/11/13 01:28:11;;;;;;;;;;;;;;;;;;5042826;28;1693;-52
2021/11/13 01:30:36;;;;;;;;;;;;;;;;;;5045354;28;1638;-53
2021/11/13 01:33:01;;;;;;;;;;;;;;;;;;5046974;28;1266;-52
2021/11/13 01:35:27;;;;;;;;;;;;;;;;;;5043221;28;1942;-52
2021/11/13 01:37:52;;;;;;;;;;;;;;;;;;5045618;28;1149;-53
2021/11/13 01:40:18;;;;;;;;;;;;;;;;;;5047354;28;1109;-52
2021/11/13 01:42:43;;;;;;;;;;;;;;;;;;5046428;28;1724;-54
2021/11/13 01:45:09;;;;;;;;;;;;;;;;;;5046227;28;1401;-52
2021/11/13 01:47:34;;;;;;;;;;;;;;;;;;5046858;28;1179;-53
2021/11/13 01:49:59;;;;;;;;;;;;;;;;;;5043515;28;1907;-53
2021/11/13 01:52:24;;;;;;;;;;;;;;;;;;5046787;28;1286;-53
2021/11/13 01:54:49;;;;;;;;;;;;;;;;;;5046876;28;1558;-52
2021/11/13 01:57:22;;;;;;;;;;;;;;;;;;5047126;28;1910;-51
2021/11/13 01:59:48;;;;;;;;;;;;;;;;;;5038904;28;1712;-53
2021/11/13 02:02:14;;;;;;;;;;;;;;;;;;5041603;28;1654;-51
2021/11/13 02:04:39;;;;;;;;;;;;;;;;;;5041482;28;1498;-53
2021/11/13 02:07:04;;;;;;;;;;;;;;;;;;5046236;28;1511;-52
2021/11/13 02:09:30;;;;;;;;;;;;;;;;;;5046501;28;1188;-53
2021/11/13 02:11:55;;;;;;;;;;;;;;;;;;5047032;28;1530;-53
2021/11/13 02:14:20;;;;;;;;;;;;;;;;;;5050946;28;1572;-52
2021/11/13 02:16:45;;;;;;;;;;;;;;;;;;5048702;28;1949;-53
2021/11/13 02:19:10;;;;;;;;;;;;;;;;;;5047306;28;1563;-53
2021/11/13 02:21:36;;;;;;;;;;;;;;;;;;5048064;28;1549;-53
2021/11/13 02:24:01;;;;;;;;;;;;;;;;;;5049893;28;1349;-53
2021/11/13 02:26:26;;;;;;;;;;;;;;;;;;5046599;28;1423;-53
2021/11/13 02:28:54;;;;;;;;;;;;;;;;;;5048856;28;1423;-52
2021/11/13 02:31:20;;;;;;;;;;;;;;;;;;5050540;28;1164;-52
2021/11/13 02:33:45;;;;;;;;;;;;;;;;;;5048018;28;1422;-53
2021/11/13 02:36:10;;;;;;;;;;;;;;;;;;5048438;28;1967;-53
2021/11/13 02:38:37;;;;;;;;;;;;;;;;;;5049515;28;1782;-52
2021/11/13 02:41:03;;;;;;;;;;;;;;;;;;5049944;28;990;-52
2021/11/13 02:43:28;;;;;;;;;;;;;;;;;;5046377;28;1720;-52
2021/11/13 02:45:54;;;;;;;;;;;;;;;;;;5050378;28;1172;-52
2021/11/13 02:48:19;;;;;;;;;;;;;;;;;;5049519;28;1450;-54
2021/11/13 02:50:44;;;;;;;;;;;;;;;;;;5048873;28;1567;-53
2021/11/13 02:53:11;;;;;;;;;;;;;;;;;;5049523;28;1768;-52
2021/11/13 02:55:36;;;;;;;;;;;;;;;;;;5066130;28;1960;-53
2021/11/13 02:58:01;;;;;;;;;;;;;;;;;;5048072;28;1610;-54
2021/11/13 03:00:27;;;;;;;;;;;;;;;;;;5050093;28;1113;-54
2021/11/13 03:02:52;;;;;;;;;;;;;;;;;;5048992;28;1271;-52
2021/11/13 03:05:28;;;;;;;;;;;;;;;;;;5045376;28;1441;-53
2021/11/13 03:07:54;;;;;;;;;;;;;;;;;;5029508;28;1636;-53
2021/11/13 03:10:19;;;;;;;;;;;;;;;;;;5050386;28;1226;-53
2021/11/13 03:12:44;;;;;;;;;;;;;;;;;;5048082;28;1601;-53
2021/11/13 03:15:10;;;;;;;;;;;;;;;;;;5046363;28;1389;-53
2021/11/13 03:17:35;;;;;;;;;;;;;;;;;;5048992;28;1933;-53
2021/11/13 03:20:00;;;;;;;;;;;;;;;;;;5048279;28;1569;-53
2021/11/13 03:22:26;;;;;;;;;;;;;;;;;;5063500;28;1561;-53
2021/11/13 03:24:51;;;;;;;;;;;;;;;;;;5063916;28;1820;-52
2021/11/13 03:27:16;;;;;;;;;;;;;;;;;;5064898;28;1354;-54
2021/11/13 03:29:45;;;;;;;;;;;;;;;;;;5028080;28;1504;-52
2021/11/13 03:32:11;;;;;;;;;;;;;;;;;;5049027;28;1492;-54
2021/11/13 03:34:38;;;;;;;;;;;;;;;;;;5046488;28;1423;-52
2021/11/13 03:37:03;;;;;;;;;;;;;;;;;;5048542;28;1999;-51
2021/11/13 03:39:28;;;;;;;;;;;;;;;;;;5048733;28;1466;-52
2021/11/13 03:41:54;;;;;;;;;;;;;;;;;;5105452;22;4492;-50
2021/11/13 03:44:19;;;;;;;;;;;;;;;;;;5095112;28;1600;-49
2021/11/13 03:46:44;;;;;;;;;;;;;;;;;;5099564;28;1112;-50
2021/11/13 03:49:09;;;;;;;;;;;;;;;;;;5097686;28;1582;-50
2021/11/13 03:51:34;;;;;;;;;;;;;;;;;;5098420;28;1258;-50
2021/11/13 03:54:00;;;;;;;;;;;;;;;;;;5098242;28;1617;-49
2021/11/13 03:56:25;;;;;;;;;;;;;;;;;;5099974;28;1910;-49
2021/11/13 03:58:50;;;;;;;;;;;;;;;;;;5096785;28;1636;-49
2021/11/13 04:01:15;;;;;;;;;;;;;;;;;;5100851;28;1306;-49
2021/11/13 04:03:40;;;;;;;;;;;;;;;;;;5096501;28;1518;-50
2021/11/13 04:06:05;;;;;;;;;;;;;;;;;;5096502;28;1340;-49
2021/11/13 04:08:31;;;;;;;;;;;;;;;;;;5099055;28;1617;-48
2021/11/13 04:10:56;;;;;;;;;;;;;;;;;;5100371;28;1313;-49
2021/11/13 04:13:21;;;;;;;;;;;;;;;;;;5096679;28;1428;-48
2021/11/13 04:15:46;;;;;;;;;;;;;;;;;;5098763;28;1898;-49
2021/11/13 04:18:11;;;;;;;;;;;;;;;;;;5099244;28;1068;-50
2021/11/13 04:20:36;;;;;;;;;;;;;;;;;;5097603;28;1400;-48
2021/11/13 04:23:02;;;;;;;;;;;;;;;;;;5099027;28;1577;-54
2021/11/13 04:25:27;;;;;;;;;;;;;;;;;;5098680;28;1130;-50
2021/11/13 04:27:52;;;;;;;;;;;;;;;;;;5098803;28;1060;-49
2021/11/13 04:30:17;;;;;;;;;;;;;;;;;;5096726;28;1622;-48
2021/11/13 04:32:44;;;;;;;;;;;;;;;;;;5094391;28;2010;-49
2021/11/13 04:37:54;;;;;;;;;;;;;;;;;;5095837;28;1910;-50
2021/11/13 04:40:19;;;;;;;;;;;;;;;;;;5099305;28;1230;-49
2021/11/13 04:42:44;;;;;;;;;;;;;;;;;;5096884;28;1446;-49
2021/11/13 04:45:09;;;;;;;;;;;;;;;;;;5095292;28;1436;-49
2021/11/13 04:47:35;;;;;;;;;;;;;;;;;;5098145;28;1187;-50
2021/11/13 04:50:01;;;;;;;;;;;;;;;;;;5093846;28;1521;-50
2021/11/13 04:52:26;;;;;;;;;;;;;;;;;;5099394;28;1457;-49
2021/11/13 04:54:51;;;;;;;;;;;;;;;;;;5097892;28;1150;-49
2021/11/13 04:57:16;;;;;;;;;;;;;;;;;;5094480;28;1906;-50
2021/11/13 04:59:42;;;;;;;;;;;;;;;;;;5097811;28;1617;-50
2021/11/13 05:02:07;;;;;;;;;;;;;;;;;;5096136;28;1493;-48
2021/11/13 05:04:32;;;;;;;;;;;;;;;;;;5092793;28;1530;-49
2021/11/13 05:06:58;;;;;;;;;;;;;;;;;;5096201;28;1666;-50
2021/11/13 05:09:23;;;;;;;;;;;;;;;;;;5098984;28;1143;-49
2021/11/13 05:11:48;;;;;;;;;;;;;;;;;;5093974;28;1510;-49
2021/11/13 05:14:13;;;;;;;;;;;;;;;;;;5097392;28;1162;-50
2021/11/13 05:16:38;;;;;;;;;;;;;;;;;;5095948;28;1974;-49
2021/11/13 05:19:04;;;;;;;;;;;;;;;;;;5096497;28;1411;-49
2021/11/13 05:21:29;;;;;;;;;;;;;;;;;;5093925;28;1581;-50
2021/11/13 05:23:54;;;;;;;;;;;;;;;;;;5099843;28;1154;-48
2021/11/13 05:26:19;;;;;;;;;;;;;;;;;;5096243;28;1462;-49
2021/11/13 05:28:44;;;;;;;;;;;;;;;;;;5098060;28;1178;-50
2021/11/13 05:31:11;;;;;;;;;;;;;;;;;;5095987;28;1881;-48
2021/11/13 05:33:36;;;;;;;;;;;;;;;;;;5094523;28;1615;-50
2021/11/13 05:36:01;;;;;;;;;;;;;;;;;;5095906;28;1967;-49
2021/11/13 05:38:26;;;;;;;;;;;;;;;;;;5097785;28;1271;-50
2021/11/13 05:40:52;;;;;;;;;;;;;;;;;;5097345;28;1502;-49
2021/11/13 05:43:17;;;;;;;;;;;;;;;;;;5093151;28;1912;-50
2021/11/13 05:45:42;;;;;;;;;;;;;;;;;;5096866;28;1199;-49
2021/11/13 05:48:07;;;;;;;;;;;;;;;;;;5094801;28;1518;-49
2021/11/13 05:50:32;;;;;;;;;;;;;;;;;;5095663;28;1440;-49
2021/11/13 05:52:58;;;;;;;;;;;;;;;;;;5098142;28;1187;-49
2021/11/13 05:55:24;;;;;;;;;;;;;;;;;;5097852;28;1099;-49
2021/11/13 05:57:50;;;;;;;;;;;;;;;;;;5093679;28;1906;-49
2021/11/13 06:00:17;;;;;;;;;;;;;;;;;;5096621;28;1533;-49
2021/11/13 06:02:42;;;;;;;;;;;;;;;;;;5098016;28;1052;-49
2021/11/13 06:05:07;;;;;;;;;;;;;;;;;;5093147;28;1451;-49
2021/11/13 06:07:33;;;;;;;;;;;;;;;;;;5092299;28;1561;-49
2021/11/13 06:09:58;;;;;;;;;;;;;;;;;;5097101;28;1092;-50
2021/11/13 06:12:23;;;;;;;;;;;;;;;;;;5096640;28;1169;-50
2021/11/13 06:14:48;;;;;;;;;;;;;;;;;;5097000;28;1505;-50
2021/11/13 06:17:15;;;;;;;;;;;;;;;;;;5095160;28;1961;-48
2021/11/13 06:19:40;;;;;;;;;;;;;;;;;;5093573;28;1396;-50
2021/11/13 06:22:05;;;;;;;;;;;;;;;;;;5097523;28;1297;-50
2021/11/13 06:24:31;;;;;;;;;;;;;;;;;;5097717;28;979;-50
2021/11/13 06:26:56;;;;;;;;;;;;;;;;;;5095499;28;1514;-49
2021/11/13 06:29:21;;;;;;;;;;;;;;;;;;5094199;28;1440;-50
2021/11/13 06:31:46;;;;;;;;;;;;;;;;;;5096296;28;1568;-49
2021/11/13 06:34:12;;;;;;;;;;;;;;;;;;5091721;28;1497;-49
2021/11/13 06:36:37;;;;;;;;;;;;;;;;;;5098082;28;1961;-49
2021/11/13 06:39:03;;;;;;;;;;;;;;;;;;5095039;28;1131;-49
2021/11/13 06:41:30;;;;;;;;;;;;;;;;;;5096830;28;1301;-49
2021/11/13 06:43:55;;;;;;;;;;;;;;;;;;5096622;28;1545;-49
2021/11/13 06:46:21;;;;;;;;;;;;;;;;;;5098549;28;1107;-49
2021/11/13 06:48:46;;;;;;;;;;;;;;;;;;5097306;28;1111;-50
2021/11/13 06:51:11;;;;;;;;;;;;;;;;;;5096712;28;1634;-48
2021/11/13 06:53:37;;;;;;;;;;;;;;;;;;5096948;28;1762;-51
2021/11/13 06:56:02;;;;;;;;;;;;;;;;;;5098106;28;1910;-48
2021/11/13 06:58:27;;;;;;;;;;;;;;;;;;5094154;28;1465;-48
2021/11/13 07:00:52;;;;;;;;;;;;;;;;;;5099363;28;1282;-50
2021/11/13 07:03:17;;;;;;;;;;;;;;;;;;5099163;28;1471;-50
2021/11/13 07:05:42;;;;;;;;;;;;;;;;;;5099568;28;1365;-48
2021/11/13 07:08:08;;;;;;;;;;;;;;;;;;5094758;28;1715;-49
2021/11/13 07:10:33;;;;;;;;;;;;;;;;;;5099494;28;1207;-49
2021/11/13 07:12:58;;;;;;;;;;;;;;;;;;5094118;28;1528;-50
2021/11/13 07:15:26;;;;;;;;;;;;;;;;;;5099186;28;1428;-49
2021/11/13 07:17:51;;;;;;;;;;;;;;;;;;5100392;28;1918;-50
2021/11/13 07:20:16;;;;;;;;;;;;;;;;;;5095612;28;1608;-49
2021/11/13 07:22:41;;;;;;;;;;;;;;;;;;5099713;28;1103;-50
2021/11/13 07:25:12;;;;;;;;;;;;;;;;;;5097394;28;1600;-49
2021/11/13 07:27:39;;;;;;;;;;;;;;;;;;5097868;28;1009;-49
2021/11/13 07:30:04;;;;;;;;;;;;;;;;;;5100030;28;1100;-49
2021/11/13 07:32:29;;;;;;;;;;;;;;;;;;5096670;28;1473;-50
2021/11/13 07:34:55;;;;;;;;;;;;;;;;;;5094150;28;1653;-50
2021/11/13 07:37:21;;;;;;;;;;;;;;;;;;5100022;28;1905;-49
2021/11/13 07:39:46;;;;;;;;;;;;;;;;;;5099749;28;1025;-49
2021/11/13 07:42:11;;;;;;;;;;;;;;;;;;5098189;28;1447;-49
2021/11/13 07:44:36;;;;;;;;;;;;;;;;;;5099564;28;1669;-49
2021/11/13 07:47:01;;;;;;;;;;;;;;;;;;5100538;28;1145;-50
2021/11/13 07:49:27;;;;;;;;;;;;;;;;;;5094726;28;1529;-48
2021/11/13 07:51:52;;;;;;;;;;;;;;;;;;5100318;28;1676;-49
2021/11/13 07:54:18;;;;;;;;;;;;;;;;;;5099518;28;1092;-49
2021/11/13 07:56:43;;;;;;;;;;;;;;;;;;5099026;28;1967;-49
2021/11/13 07:59:09;;;;;;;;;;;;;;;;;;5095491;28;1520;-49
2021/11/13 08:01:34;;;;;;;;;;;;;;;;;;5099004;28;1327;-49
2021/11/13 08:03:59;;;;;;;;;;;;;;;;;;5093859;28;1573;-49
2021/11/13 08:06:25;;;;;;;;;;;;;;;;;;5100440;28;1168;-49
2021/11/13 08:08:50;;;;;;;;;;;;;;;;;;5098037;28;1119;-49
2021/11/13 08:11:15;;;;;;;;;;;;;;;;;;5097340;28;1526;-49
2021/11/13 08:13:42;;;;;;;;;;;;;;;;;;5097685;28;1317;-49
2021/11/13 08:16:07;;;;;;;;;;;;;;;;;;5095523;28;1906;-49
2021/11/13 08:18:32;;;;;;;;;;;;;;;;;;5099889;28;1162;-50
2021/11/13 08:20:59;;;;;;;;;;;;;;;;;;5094511;28;1545;-48
2021/11/13 08:23:24;;;;;;;;;;;;;;;;;;5099498;28;1001;-50
2021/11/13 08:25:52;;;;;;;;;;;;;;;;;;5098089;28;1114;-49
2021/11/13 08:28:18;;;;;;;;;;;;;;;;;;5097228;28;1448;-50
2021/11/13 08:30:44;;;;;;;;;;;;;;;;;;5099282;28;1546;-50
2021/11/13 08:33:09;;;;;;;;;;;;;;;;;;5097136;28;1644;-50
2021/11/13 08:35:35;;;;;;;;;;;;;;;;;;5095217;28;1383;-49
2021/11/13 08:38:00;;;;;;;;;;;;;;;;;;5098104;28;1969;-49
2021/11/13 08:40:25;;;;;;;;;;;;;;;;;;5099901;28;2235;-48
2021/11/13 08:42:51;;;;;;;;;;;;;;;;;;5096024;28;1534;-49
2021/11/13 08:45:16;;;;;;;;;;;;;;;;;;5098409;28;1190;-49
2021/11/13 08:47:42;;;;;;;;;;;;;;;;;;5099027;28;1174;-49
2021/11/13 08:50:08;;;;;;;;;;;;;;;;;;5097610;28;1926;-49
2021/11/13 08:52:33;;;;;;;;;;;;;;;;;;5096575;28;1289;-49
2021/11/13 08:54:59;;;;;;;;;;;;;;;;;;5097939;28;1601;-48
2021/11/13 08:57:24;;;;;;;;;;;;;;;;;;5097567;28;1910;-50
2021/11/13 08:59:49;;;;;;;;;;;;;;;;;;5096390;28;1529;-50
2021/11/13 09:02:16;;;;;;;;;;;;;;;;;;5099253;28;1511;-50
2021/11/13 09:04:41;;;;;;;;;;;;;;;;;;5093288;28;1473;-49
2021/11/13 09:07:07;;;;;;;;;;;;;;;;;;5094831;28;2125;-50
2021/11/13 09:09:35;;;;;;;;;;;;;;;;;;5098269;28;1020;-49
2021/11/13 09:12:03;;;;;;;;;;;;;;;;;;5093878;28;1494;-49
2021/11/13 09:14:28;;;;;;;;;;;;;;;;;;5095817;28;1499;-49
2021/11/13 09:16:53;;;;;;;;;;;;;;;;;;5093133;28;1910;-50
2021/11/13 09:19:18;;;;;;;;;;;;;;;;;;5097102;28;1388;-49
2021/11/13 09:21:43;;;;;;;;;;;;;;;;;;5097341;28;1301;-49
2021/11/13 09:24:09;;;;;;;;;;;;;;;;;;5095243;28;1568;-49
2021/11/13 09:26:34;;;;;;;;;;;;;;;;;;5097508;28;1119;-48
2021/11/13 09:29:00;;;;;;;;;;;;;;;;;;5095992;28;2077;-49
2021/11/13 09:31:25;;;;;;;;;;;;;;;;;;5097193;28;1237;-49
2021/11/13 09:33:50;;;;;;;;;;;;;;;;;;5096719;28;1453;-48
2021/11/13 09:36:15;;;;;;;;;;;;;;;;;;5097270;28;1905;-51
2021/11/13 09:38:43;;;;;;;;;;;;;;;;;;5097002;28;1116;-49
2021/11/13 09:41:08;;;;;;;;;;;;;;;;;;5111796;22;1947;-51
2021/11/13 09:43:34;;;;;;;;;;;;;;;;;;5103994;28;1487;-53
2021/11/13 09:45:59;;;;;;;;;;;;;;;;;;5106710;28;1194;-53
2021/11/13 09:48:24;;;;;;;;;;;;;;;;;;5107087;28;1655;-53
2021/11/13 09:50:50;;;;;;;;;;;;;;;;;;5106513;28;1401;-53
2021/11/13 09:53:16;;;;;;;;;;;;;;;;;;5106756;28;1587;-53
2021/11/13 09:55:41;;;;;;;;;;;;;;;;;;5108305;28;1142;-51
2021/11/13 09:58:06;;;;;;;;;;;;;;;;;;5102579;28;1909;-53
2021/11/13 10:00:36;;;;;;;;;;;;;;;;;;5105883;28;1090;-52
2021/11/13 10:03:01;;;;;;;;;;;;;;;;;;5104611;28;1631;-53
2021/11/13 10:05:26;;;;;;;;;;;;;;;;;;5105766;28;1640;-53
2021/11/13 10:07:51;;;;;;;;;;;;;;;;;;5103688;28;1463;-51
2021/11/13 10:10:33;;;;;;;;;;;;;;;;;;5108194;28;965;-53
2021/11/13 10:12:58;;;;;;;;;;;;;;;;;;5105680;28;1471;-53
2021/11/13 10:15:26;;;;;;;;;;;;;;;;;;5107222;28;1429;-53
2021/11/13 10:18:09;;;;;;;;;;;;;;;;;;5106344;28;1930;-54
2021/11/13 10:20:35;;;;;;;;;;;;;;;;;;5106104;28;1418;-53
2021/11/13 10:23:00;;;;;;;;;;;;;;;;;;5107258;28;1171;-52
2021/11/13 10:25:26;;;;;;;;;;;;;;;;;;5107801;28;1161;-52
2021/11/13 10:28:06;;;;;;;;;;;;;;;;;;5107698;28;1628;-53
2021/11/13 10:30:31;;;;;;;;;;;;;;;;;;5105816;28;1371;-53
2021/11/13 10:32:57;;;;;;;;;;;;;;;;;;5107699;28;1479;-53
2021/11/13 10:35:38;;;;;;;;;;;;;;;;;;5109127;28;1431;-53
2021/11/13 10:38:13;;;;;;;;;;;;;;;;;;5108019;28;1963;-53
2021/11/13 10:40:46;;;;;;;;;;;;;;;;;;5110432;28;1084;-53
2021/11/13 10:43:12;;;;;;;;;;;;;;;;;;5104882;28;1515;-53
2021/11/13 10:45:37;;;;;;;;;;;;;;;;;;5111039;28;1210;-52
2021/11/13 10:48:02;;;;;;;;;;;;;;;;;;5109345;28;1522;-52
2021/11/13 10:50:27;;;;;;;;;;;;;;;;;;5109024;28;1488;-53
2021/11/13 10:53:07;;;;;;;;;;;;;;;;;;5110538;28;1395;-53
2021/11/13 10:55:32;;;;;;;;;;;;;;;;;;5109650;28;1611;-54
2021/11/13 10:58:17;;;;;;;;;;;;;;;;;;5110624;28;1906;-51
2021/11/13 11:00:43;;;;;;;;;;;;;;;;;;5110184;28;1666;-52
2021/11/13 11:03:08;;;;;;;;;;;;;;;;;;5108069;28;1467;-52
2021/11/13 11:05:43;;;;;;;;;;;;;;;;;;5108348;28;1331;-53
2021/11/13 11:08:43;;;;;;;;;;;;;;;;;;5108649;28;1481;-52
2021/11/13 11:11:25;;;;;;;;;;;;;;;;;;5056095;28;1380;-53
2021/11/13 11:13:51;;;;;;;;;;;;;;;;;;5104415;28;1419;-52
2021/11/13 11:16:22;;;;;;;;;;;;;;;;;;5109862;28;1965;-53
2021/11/13 11:18:56;;;;;;;;;;;;;;;;;;5107896;28;1640;-53
2021/11/13 11:21:58;;;;;;;;;;;;;;;;;;5109572;28;1378;-53
2021/11/13 11:24:29;;;;;;;;;;;;;;;;;;5040135;28;1637;-52
2021/11/13 11:26:58;;;;;;;;;;;;;;;;;;5098048;28;1176;-52
2021/11/13 11:29:24;;;;;;;;;;;;;;;;;;5105960;28;1669;-52
2021/11/13 11:31:50;;;;;;;;;;;;;;;;;;5110760;28;1306;-54
2021/11/13 11:34:25;;;;;;;;;;;;;;;;;;5107673;28;1607;-52
2021/11/13 11:36:51;;;;;;;;;;;;;;;;;;5109093;28;1969;-53
2021/11/13 11:39:16;;;;;;;;;;;;;;;;;;5109720;28;1138;-52
2021/11/13 11:41:41;;;;;;;;;;;;;;;;;;5110931;28;1291;-52
2021/11/13 11:44:06;;;;;;;;;;;;;;;;;;5107048;27;1558;-52
2021/11/13 11:46:32;;;;;;;;;;;;;;;;;;5109026;28;1186;-52
2021/11/13 11:48:57;;;;;;;;;;;;;;;;;;5108011;28;1623;-52
2021/11/13 11:51:22;;;;;;;;;;;;;;;;;;5110057;28;1382;-52
2021/11/13 11:53:48;;;;;;;;;;;;;;;;;;5108037;28;1560;-53
2021/11/13 11:56:13;;;;;;;;;;;;;;;;;;5109335;28;1901;-51
2021/11/13 11:58:41;;;;;;;;;;;;;;;;;;5107006;28;1644;-53
2021/11/13 12:01:09;;;;;;;;;;;;;;;;;;5110372;27;1285;-53
2021/11/13 12:03:35;;;;;;;;;;;;;;;;;;5105051;28;1538;-54
2021/11/13 12:06:00;;;;;;;;;;;;;;;;;;5107324;28;1406;-52
2021/11/13 12:08:26;;;;;;;;;;;;;;;;;;5108695;28;1492;-53
2021/11/13 12:10:52;;;;;;;;;;;;;;;;;;5109406;28;1713;-54
2021/11/13 12:13:23;;;;;;;;;;;;;;;;;;5106117;28;1828;-53
2021/11/13 12:15:49;;;;;;;;;;;;;;;;;;5105938;28;1607;-52
2021/11/13 12:18:15;;;;;;;;;;;;;;;;;;5107850;28;1926;-53
2021/11/13 12:20:41;;;;;;;;;;;;;;;;;;5108862;28;1494;-52
2021/11/13 12:23:10;;;;;;;;;;;;;;;;;;5109082;28;1224;-51
2021/11/13 12:25:37;;;;;;;;;;;;;;;;;;5109995;28;1119;-53
2021/11/13 12:28:12;;;;;;;;;;;;;;;;;;5107803;27;1568;-52
2021/11/13 12:30:45;;;;;;;;;;;;;;;;;;5108638;28;1073;-53
2021/11/13 12:33:28;;;;;;;;;;;;;;;;;;5107159;28;1335;-52
2021/11/13 12:35:55;;;;;;;;;;;;;;;;;;5106928;28;1914;-52
2021/11/13 12:38:38;;;;;;;;;;;;;;;;;;5109188;28;1083;-52
2021/11/13 12:41:12;;;;;;;;;;;;;;;;;;5109305;28;1344;-53
2021/11/13 12:46:36;;;;;;;;;;;;;;;;;;5109279;28;1080;-53
2021/11/13 12:49:22;;;;;;;;;;;;;;;;;;5103761;28;1631;-52
2021/11/13 12:51:54;;;;;;;;;;;;;;;;;;5108225;28;1607;-52
2021/11/13 12:54:22;;;;;;;;;;;;;;;;;;5109198;28;1673;-51
2021/11/13 12:56:48;;;;;;;;;;;;;;;;;;5107168;28;1949;-53
2021/11/13 12:59:14;;;;;;;;;;;;;;;;;;5106417;28;1409;-53
2021/11/13 13:01:46;;;;;;;;;;;;;;;;;;5108005;28;1269;-53
2021/11/13 13:04:11;;;;;;;;;;;;;;;;;;5104606;28;1482;-53
2021/11/13 13:06:41;;;;;;;;;;;;;;;;;;5107636;28;1613;-53
2021/11/13 13:09:07;;;;;;;;;;;;;;;;;;5108767;28;1085;-53
2021/11/13 13:11:32;;;;;;;;;;;;;;;;;;5107376;28;1591;-53
2021/11/13 13:13:59;;;;;;;;;;;;;;;;;;5106767;28;1512;-54
2021/11/13 13:16:28;;;;;;;;;;;;;;;;;;5106605;28;2267;-54
2021/11/13 13:18:59;;;;;;;;;;;;;;;;;;5105006;28;1590;-53
2021/11/13 13:21:24;;;;;;;;;;;;;;;;;;5108123;28;1285;-53
2021/11/13 13:23:49;;;;;;;;;;;;;;;;;;5107938;28;1560;-53
2021/11/13 13:26:14;;;;;;;;;;;;;;;;;;5108359;28;1181;-53
2021/11/13 13:28:40;;;;;;;;;;;;;;;;;;5105420;28;1722;-52
2021/11/13 13:31:06;;;;;;;;;;;;;;;;;;5108460;28;1404;-52
2021/11/13 13:33:31;;;;;;;;;;;;;;;;;;5108211;28;1173;-53
2021/11/13 13:35:57;;;;;;;;;;;;;;;;;;5104549;28;1902;-52
2021/11/13 13:38:22;;;;;;;;;;;;;;;;;;5106758;28;1650;-53
2021/11/13 13:40:51;;;;;;;;;;;;;;;;;;5107395;28;1114;-52
2021/11/13 13:43:24;;;;;;;;;;;;;;;;;;5103636;28;1528;-53
2021/11/13 13:46:07;;;;;;;;;;;;;;;;;;5106994;28;1139;-54
2021/11/13 13:48:35;;;;;;;;;;;;;;;;;;5106853;28;1633;-53
2021/11/13 13:51:02;;;;;;;;;;;;;;;;;;5102742;28;1400;-53
2021/11/13 13:53:27;;;;;;;;;;;;;;;;;;5105448;28;1344;-53
2021/11/13 13:55:52;;;;;;;;;;;;;;;;;;5108227;28;1296;-52
2021/11/13 13:58:18;;;;;;;;;;;;;;;;;;5106652;28;1913;-53
2021/11/13 14:00:46;;;;;;;;;;;;;;;;;;5106325;28;1442;-53
2021/11/13 14:03:11;;;;;;;;;;;;;;;;;;5105078;28;1654;-53
2021/11/13 14:05:36;;;;;;;;;;;;;;;;;;5103990;28;1456;-52
2021/11/13 14:08:02;;;;;;;;;;;;;;;;;;5106043;28;1491;-53
2021/11/13 14:10:27;;;;;;;;;;;;;;;;;;5110600;28;1163;-53
2021/11/13 14:12:54;;;;;;;;;;;;;;;;;;5110578;28;1607;-52
2021/11/13 14:15:28;;;;;;;;;;;;;;;;;;5108792;28;1398;-53
2021/11/13 14:18:04;;;;;;;;;;;;;;;;;;5110179;28;1984;-53
2021/11/13 14:20:30;;;;;;;;;;;;;;;;;;5110151;28;1487;-51
2021/11/13 14:22:58;;;;;;;;;;;;;;;;;;5106848;28;1552;-53
2021/11/13 14:25:23;;;;;;;;;;;;;;;;;;5110857;28;1190;-53
2021/11/13 14:27:49;;;;;;;;;;;;;;;;;;5110883;28;1520;-53
2021/11/13 14:30:14;;;;;;;;;;;;;;;;;;5110903;28;1535;-53
2021/11/13 14:32:39;;;;;;;;;;;;;;;;;;5108747;28;1655;-53
2021/11/13 14:35:05;;;;;;;;;;;;;;;;;;5108552;28;1502;-53
2021/11/13 14:37:31;;;;;;;;;;;;;;;;;;5107943;28;1902;-52
2021/11/13 14:39:56;;;;;;;;;;;;;;;;;;5111556;28;1026;-53
2021/11/13 14:42:22;;;;;;;;;;;;;;;;;;5111879;28;1375;-52
2021/11/13 14:44:51;;;;;;;;;;;;;;;;;;5110955;28;1501;-53
2021/11/13 14:47:17;;;;;;;;;;;;;;;;;;5111841;28;1127;-53
2021/11/13 14:49:47;;;;;;;;;;;;;;;;;;5109806;28;1439;-53
2021/11/13 14:52:13;;;;;;;;;;;;;;;;;;5110667;28;1384;-52
2021/11/13 14:54:51;;;;;;;;;;;;;;;;;;5108299;28;1464;-52
2021/11/13 14:57:17;;;;;;;;;;;;;;;;;;5107838;28;1910;-52
2021/11/13 14:59:42;;;;;;;;;;;;;;;;;;5109559;28;1227;-53
2021/11/13 15:02:07;;;;;;;;;;;;;;;;;;5109545;28;1281;-52
2021/11/13 15:04:33;;;;;;;;;;;;;;;;;;5107158;27;1505;-53
2021/11/13 15:06:58;;;;;;;;;;;;;;;;;;5108895;28;1661;-53
2021/11/13 15:09:24;;;;;;;;;;;;;;;;;;5111340;28;1106;-53
2021/11/13 15:11:49;;;;;;;;;;;;;;;;;;5110558;28;1293;-52
2021/11/13 15:14:18;;;;;;;;;;;;;;;;;;5107354;28;1574;-52
2021/11/13 15:16:43;;;;;;;;;;;;;;;;;;5109391;28;1972;-54
2021/11/13 15:19:09;;;;;;;;;;;;;;;;;;5107886;28;1399;-53
2021/11/13 15:21:34;;;;;;;;;;;;;;;;;;5109365;28;1383;-53
2021/11/13 15:24:10;;;;;;;;;;;;;;;;;;5110620;28;2008;-53
2021/11/13 15:26:35;;;;;;;;;;;;;;;;;;5110174;28;1124;-52
2021/11/13 15:29:10;;;;;;;;;;;;;;;;;;5107962;28;1548;-53
2021/11/13 15:31:35;;;;;;;;;;;;;;;;;;5109025;28;1272;-52
2021/11/13 15:34:00;;;;;;;;;;;;;;;;;;5107289;28;1604;-54
2021/11/13 15:36:25;;;;;;;;;;;;;;;;;;5109770;28;1973;-53
2021/11/13 15:38:50;;;;;;;;;;;;;;;;;;5109065;28;1443;-53
2021/11/13 15:41:20;;;;;;;;;;;;;;;;;;5110647;28;1336;-54
2021/11/13 15:43:50;;;;;;;;;;;;;;;;;;5107841;28;1402;-52
2021/11/13 15:46:15;;;;;;;;;;;;;;;;;;5109269;28;1155;-53
2021/11/13 15:48:41;;;;;;;;;;;;;;;;;;5110171;28;1647;-53
2021/11/13 15:51:08;;;;;;;;;;;;;;;;;;5109511;27;1446;-53
2021/11/13 15:53:36;;;;;;;;;;;;;;;;;;5109692;28;1508;-54
2021/11/13 15:56:02;;;;;;;;;;;;;;;;;;5109763;28;1921;-53
2021/11/13 15:58:27;;;;;;;;;;;;;;;;;;5107778;28;1566;-53
2021/11/13 16:00:52;;;;;;;;;;;;;;;;;;5110737;28;1282;-53
2021/11/13 16:03:17;;;;;;;;;;;;;;;;;;5106738;28;1496;-50
2021/11/13 16:05:42;;;;;;;;;;;;;;;;;;5108326;28;1549;-53
2021/11/13 16:08:07;;;;;;;;;;;;;;;;;;5107811;28;1670;-53
2021/11/13 16:10:33;;;;;;;;;;;;;;;;;;5113910;22;4468;-87
2021/11/13 16:12:59;;;;;;;;;;;;;;;;;;5072741;28;1690;-87
2021/11/13 16:15:24;;;;;;;;;;;;;;;;;;5072037;28;1152;-87
2021/11/13 16:17:49;;;;;;;;;;;;;;;;;;5085699;28;1913;-87
2021/11/13 16:20:16;;;;;;;;;;;;;;;;;;5084655;28;1474;-87
2021/11/13 16:22:41;;;;;;;;;;;;;;;;;;5065347;28;1481;-87
2021/11/13 16:25:06;;;;;;;;;;;;;;;;;;5084589;28;1178;-87
2021/11/13 16:27:32;;;;;;;;;;;;;;;;;;5065750;28;1564;-87
2021/11/13 16:29:57;;;;;;;;;;;;;;;;;;5080032;28;1429;-87
2021/11/13 16:32:22;;;;;;;;;;;;;;;;;;5082486;28;1333;-87
2021/11/13 16:34:47;;;;;;;;;;;;;;;;;;5085557;28;1557;-87
2021/11/13 16:37:13;;;;;;;;;;;;;;;;;;5089078;28;1973;-87
2021/11/13 16:39:38;;;;;;;;;;;;;;;;;;5090831;28;1194;-87
2021/11/13 16:42:03;;;;;;;;;;;;;;;;;;5080868;28;1155;-87
2021/11/13 16:44:28;;;;;;;;;;;;;;;;;;5080376;28;1428;-87
2021/11/13 16:46:54;;;;;;;;;;;;;;;;;;5081254;28;1481;-87
2021/11/13 16:49:19;;;;;;;;;;;;;;;;;;5088054;28;1559;-87
2021/11/13 16:51:44;;;;;;;;;;;;;;;;;;5080509;28;1152;-87
2021/11/13 16:54:10;;;;;;;;;;;;;;;;;;5063834;28;1581;-87
2021/11/13 16:56:36;;;;;;;;;;;;;;;;;;5082118;28;1965;-87
2021/11/13 16:59:02;;;;;;;;;;;;;;;;;;5063133;28;1410;-87
2021/11/13 17:01:32;;;;;;;;;;;;;;;;;;5076385;28;1104;-87
2021/11/13 17:04:04;;;;;;;;;;;;;;;;;;5079851;28;1511;-87